createdAt,value
2018-12-02T00:00:52.411Z,999.86
2018-12-02T00:02:00.650Z,999.88
2018-12-02T00:02:59.287Z,999.86
2018-12-02T00:03:59.233Z,999.86
2018-12-02T00:04:51.675Z,999.86
2018-12-02T00:05:51.656Z,999.82
2018-12-02T00:06:51.677Z,999.82
2018-12-02T00:07:51.641Z,999.81
2018-12-02T00:08:51.627Z,999.73
2018-12-02T00:09:51.634Z,999.74
2018-12-02T00:10:51.608Z,999.69
2018-12-02T00:11:51.614Z,999.71
2018-12-02T00:12:51.588Z,999.70
2018-12-02T00:13:51.572Z,999.63
2018-12-02T00:14:51.563Z,999.64
2018-12-02T00:15:51.580Z,999.69
2018-12-02T00:16:51.564Z,999.63
2018-12-02T00:17:51.554Z,999.59
2018-12-02T00:18:51.525Z,999.56
2018-12-02T00:19:51.514Z,999.58
2018-12-02T00:20:51.556Z,999.55
2018-12-02T00:21:51.901Z,999.55
2018-12-02T00:22:51.522Z,999.53
2018-12-02T00:23:51.512Z,999.50
2018-12-02T00:24:51.460Z,999.52
2018-12-02T00:25:51.468Z,999.48
2018-12-02T00:26:51.439Z,999.46
2018-12-02T00:27:51.475Z,999.47
2018-12-02T00:28:51.411Z,999.45
2018-12-02T00:29:51.403Z,999.44
2018-12-02T00:30:51.409Z,999.43
2018-12-02T00:31:51.380Z,999.43
2018-12-02T00:32:51.386Z,999.42
2018-12-02T00:33:51.356Z,999.47
2018-12-02T00:34:51.349Z,999.43
2018-12-02T00:35:51.339Z,999.42
2018-12-02T00:36:51.337Z,999.44
2018-12-02T00:37:51.340Z,999.43
2018-12-02T00:38:51.304Z,999.44
2018-12-02T00:39:51.293Z,999.41
2018-12-02T00:40:51.284Z,999.38
2018-12-02T00:41:51.275Z,999.36
2018-12-02T00:42:51.289Z,999.40
2018-12-02T00:43:51.259Z,999.37
2018-12-02T00:44:51.240Z,999.37
2018-12-02T00:45:51.239Z,999.34
2018-12-02T00:46:51.221Z,999.33
2018-12-02T00:47:51.206Z,999.28
2018-12-02T00:48:51.228Z,999.32
2018-12-02T00:49:51.186Z,999.33
2018-12-02T00:50:51.177Z,999.25
2018-12-02T00:51:51.167Z,999.24
2018-12-02T00:52:51.159Z,999.22
2018-12-02T00:53:51.175Z,999.18
2018-12-02T00:54:51.144Z,999.15
2018-12-02T00:55:51.122Z,999.13
2018-12-02T00:56:51.112Z,999.12
2018-12-02T00:57:51.100Z,999.09
2018-12-02T00:58:51.114Z,999.06
2018-12-02T00:59:51.077Z,999.01
2018-12-02T01:00:51.079Z,998.99
2018-12-02T01:01:58.697Z,999.01
2018-12-02T01:02:51.067Z,998.97
2018-12-02T01:03:51.056Z,998.92
2018-12-02T01:04:51.041Z,998.91
2018-12-02T01:05:51.018Z,998.88
2018-12-02T01:06:53.543Z,998.89
2018-12-02T01:07:51.036Z,998.82
2018-12-02T01:08:51.022Z,998.81
2018-12-02T01:09:50.994Z,998.80
2018-12-02T01:10:51.004Z,998.82
2018-12-02T01:11:50.957Z,998.86
2018-12-02T01:12:50.938Z,998.81
2018-12-02T01:13:50.944Z,998.82
2018-12-02T01:14:50.933Z,998.77
2018-12-02T01:15:50.905Z,998.79
2018-12-02T01:16:50.891Z,998.79
2018-12-02T01:17:50.888Z,998.74
2018-12-02T01:18:50.870Z,998.69
2018-12-02T01:19:50.922Z,998.69
2018-12-02T01:22:17.992Z,998.62
2018-12-02T01:23:17.947Z,998.65
2018-12-02T01:24:17.961Z,998.69
2018-12-02T01:25:17.981Z,998.69
2018-12-02T01:26:17.940Z,998.65
2018-12-02T01:27:17.917Z,998.62
2018-12-02T01:28:17.912Z,998.56
2018-12-02T01:29:17.903Z,998.58
2018-12-02T01:30:17.922Z,998.55
2018-12-02T01:31:17.884Z,998.54
2018-12-02T01:32:17.854Z,998.57
2018-12-02T01:33:17.847Z,998.61
2018-12-02T01:34:17.837Z,998.57
2018-12-02T01:35:17.845Z,998.61
2018-12-02T01:36:17.806Z,998.61
2018-12-02T01:37:17.826Z,998.60
2018-12-02T01:38:17.786Z,998.58
2018-12-02T01:39:17.773Z,998.60
2018-12-02T01:40:17.779Z,998.60
2018-12-02T01:41:17.749Z,998.59
2018-12-02T01:42:17.749Z,998.57
2018-12-02T01:43:17.731Z,998.54
2018-12-02T01:44:17.717Z,998.54
2018-12-02T01:45:17.722Z,998.55
2018-12-02T01:46:17.698Z,998.55
2018-12-02T01:47:17.684Z,998.51
2018-12-02T01:48:17.673Z,998.54
2018-12-02T01:49:17.721Z,998.51
2018-12-02T01:50:17.674Z,998.49
2018-12-02T01:51:17.655Z,998.52
2018-12-02T01:52:17.630Z,998.49
2018-12-02T01:53:17.621Z,998.51
2018-12-02T01:54:17.618Z,998.49
2018-12-02T01:55:17.600Z,998.49
2018-12-02T01:56:17.629Z,998.47
2018-12-02T01:57:17.579Z,998.46
2018-12-02T01:58:17.567Z,998.44
2018-12-02T01:59:17.577Z,998.36
2018-12-02T02:00:17.570Z,998.32
2018-12-02T02:01:17.532Z,998.28
2018-12-02T02:02:17.521Z,998.23
2018-12-02T02:03:17.515Z,998.20
2018-12-02T02:04:17.503Z,998.15
2018-12-02T02:05:17.499Z,998.18
2018-12-02T02:06:17.499Z,998.18
2018-12-02T02:07:17.474Z,998.17
2018-12-02T02:08:17.465Z,998.20
2018-12-02T02:09:17.443Z,998.15
2018-12-02T02:10:17.450Z,998.05
2018-12-02T02:11:17.428Z,998.09
2018-12-02T02:12:17.413Z,998.08
2018-12-02T02:13:17.401Z,998.00
2018-12-02T02:14:17.390Z,997.97
2018-12-02T02:15:17.648Z,997.94
2018-12-02T02:16:17.376Z,997.96
2018-12-02T02:17:17.367Z,997.97
2018-12-02T02:18:17.348Z,997.98
2018-12-02T02:19:17.336Z,997.99
2018-12-02T02:20:17.350Z,997.93
2018-12-02T02:21:24.982Z,997.92
2018-12-02T02:22:17.373Z,997.91
2018-12-02T02:23:17.371Z,997.91
2018-12-02T02:24:17.323Z,997.86
2018-12-02T02:25:17.334Z,997.86
2018-12-02T02:26:17.267Z,997.83
2018-12-02T02:27:17.259Z,997.84
2018-12-02T02:28:17.237Z,997.81
2018-12-02T02:29:17.228Z,997.81
2018-12-02T02:30:17.247Z,997.82
2018-12-02T02:31:17.216Z,997.80
2018-12-02T02:32:17.195Z,997.76
2018-12-02T02:33:17.185Z,997.74
2018-12-02T02:34:17.171Z,997.72
2018-12-02T02:35:17.197Z,997.71
2018-12-02T02:36:17.198Z,997.71
2018-12-02T02:37:17.143Z,997.73
2018-12-02T02:38:17.128Z,997.67
2018-12-02T02:39:17.116Z,997.66
2018-12-02T02:40:17.129Z,997.62
2018-12-02T02:41:17.094Z,997.60
2018-12-02T02:42:17.092Z,997.57
2018-12-02T02:43:17.081Z,997.56
2018-12-02T02:44:17.063Z,997.57
2018-12-02T02:45:17.074Z,997.59
2018-12-02T02:46:17.040Z,997.57
2018-12-02T02:47:17.028Z,997.53
2018-12-02T02:48:17.025Z,997.53
2018-12-02T02:49:24.165Z,997.50
2018-12-02T02:50:25.912Z,997.52
2018-12-02T02:51:24.584Z,997.47
2018-12-02T02:52:24.555Z,997.47
2018-12-02T02:53:24.622Z,997.45
2018-12-02T02:54:24.547Z,997.44
2018-12-02T02:55:27.021Z,997.42
2018-12-02T02:56:24.518Z,997.41
2018-12-02T02:57:24.578Z,997.40
2018-12-02T02:58:25.562Z,997.41
2018-12-02T02:59:24.522Z,997.33
2018-12-02T03:00:25.644Z,997.36
2018-12-02T03:01:24.423Z,997.40
2018-12-02T03:02:24.460Z,997.36
2018-12-02T03:03:25.431Z,997.34
2018-12-02T03:04:25.711Z,997.29
2018-12-02T03:05:26.777Z,997.35
2018-12-02T03:06:24.401Z,997.31
2018-12-02T03:07:16.826Z,997.30
2018-12-02T03:08:16.804Z,997.30
2018-12-02T03:09:16.800Z,997.31
2018-12-02T03:11:36.698Z,997.27
2018-12-02T03:13:46.070Z,997.28
2018-12-02T03:15:55.143Z,997.29
2018-12-02T03:18:04.393Z,997.24
2018-12-02T03:19:11.845Z,997.23
2018-12-02T03:20:13.182Z,997.27
2018-12-02T03:21:13.182Z,997.21
2018-12-02T03:22:12.879Z,997.18
2018-12-02T03:23:14.292Z,997.20
2018-12-02T03:24:11.818Z,997.18
2018-12-02T03:25:04.267Z,997.18
2018-12-02T03:26:04.221Z,997.21
2018-12-02T03:27:04.302Z,997.17
2018-12-02T03:28:04.220Z,997.16
2018-12-02T03:29:04.180Z,997.17
2018-12-02T03:30:04.183Z,997.11
2018-12-02T03:31:04.183Z,997.13
2018-12-02T03:32:04.149Z,997.07
2018-12-02T03:33:04.173Z,997.11
2018-12-02T03:34:04.186Z,997.08
2018-12-02T03:35:04.118Z,997.05
2018-12-02T03:36:04.117Z,997.01
2018-12-02T03:37:04.126Z,996.99
2018-12-02T03:38:04.111Z,996.99
2018-12-02T03:39:04.081Z,996.98
2018-12-02T03:40:04.087Z,996.91
2018-12-02T03:41:04.056Z,996.85
2018-12-02T03:42:04.043Z,996.95
2018-12-02T03:43:04.060Z,996.86
2018-12-02T03:44:04.049Z,996.80
2018-12-02T03:45:04.039Z,996.85
2018-12-02T03:46:04.008Z,996.84
2018-12-02T03:47:04.020Z,996.88
2018-12-02T03:48:03.998Z,996.84
2018-12-02T03:49:03.973Z,996.88
2018-12-02T03:50:03.996Z,996.83
2018-12-02T03:51:04.001Z,996.84
2018-12-02T03:52:03.965Z,996.82
2018-12-02T03:53:03.978Z,996.78
2018-12-02T03:54:03.934Z,996.75
2018-12-02T03:55:03.909Z,996.74
2018-12-02T03:56:03.935Z,996.71
2018-12-02T03:57:03.896Z,996.71
2018-12-02T03:58:03.948Z,996.70
2018-12-02T03:59:03.864Z,996.73
2018-12-02T04:00:03.855Z,996.70
2018-12-02T04:01:11.501Z,996.64
2018-12-02T04:02:03.882Z,996.60
2018-12-02T04:03:03.841Z,996.60
2018-12-02T04:04:03.844Z,996.59
2018-12-02T04:05:03.832Z,996.61
2018-12-02T04:06:03.787Z,996.54
2018-12-02T04:07:03.797Z,996.48
2018-12-02T04:08:03.801Z,996.51
2018-12-02T04:09:03.788Z,996.45
2018-12-02T04:10:03.772Z,996.44
2018-12-02T04:11:03.734Z,996.44
2018-12-02T04:12:03.726Z,996.45
2018-12-02T04:13:03.743Z,996.41
2018-12-02T04:14:03.783Z,996.41
2018-12-02T04:15:03.722Z,996.37
2018-12-02T04:16:03.688Z,996.41
2018-12-02T04:17:03.711Z,996.40
2018-12-02T04:18:03.683Z,996.32
2018-12-02T04:19:03.649Z,996.32
2018-12-02T04:20:03.642Z,996.33
2018-12-02T04:21:03.666Z,996.33
2018-12-02T04:22:03.618Z,996.34
2018-12-02T04:23:03.626Z,996.32
2018-12-02T04:24:03.594Z,996.34
2018-12-02T04:25:03.594Z,996.30
2018-12-02T04:26:03.646Z,996.27
2018-12-02T04:27:03.558Z,996.27
2018-12-02T04:28:03.624Z,996.26
2018-12-02T04:29:03.556Z,996.29
2018-12-02T04:30:03.535Z,996.28
2018-12-02T04:31:03.569Z,996.24
2018-12-02T04:32:03.576Z,996.23
2018-12-02T04:33:03.517Z,996.19
2018-12-02T04:34:03.510Z,996.11
2018-12-02T04:35:03.476Z,996.20
2018-12-02T04:36:03.481Z,996.17
2018-12-02T04:37:03.471Z,996.09
2018-12-02T04:38:03.467Z,996.13
2018-12-02T04:39:03.436Z,996.15
2018-12-02T04:40:03.432Z,996.06
2018-12-02T04:41:03.411Z,996.01
2018-12-02T04:42:03.469Z,996.02
2018-12-02T04:43:03.549Z,995.98
2018-12-02T04:44:03.449Z,995.99
2018-12-02T04:45:03.367Z,995.96
2018-12-02T04:46:03.361Z,996.00
2018-12-02T04:47:03.344Z,995.96
2018-12-02T04:48:03.337Z,995.96
2018-12-02T04:49:03.338Z,995.91
2018-12-02T04:50:03.357Z,995.95
2018-12-02T04:51:03.314Z,995.92
2018-12-02T04:52:03.288Z,995.82
2018-12-02T04:53:03.276Z,995.91
2018-12-02T04:54:12.430Z,995.86
2018-12-02T04:55:03.299Z,995.80
2018-12-02T04:56:03.276Z,995.82
2018-12-02T04:57:03.287Z,995.80
2018-12-02T04:58:03.225Z,995.80
2018-12-02T04:59:03.260Z,995.80
2018-12-02T05:00:03.202Z,995.75
2018-12-02T05:01:03.190Z,995.71
2018-12-02T05:02:03.237Z,995.71
2018-12-02T05:03:03.167Z,995.67
2018-12-02T05:04:03.196Z,995.62
2018-12-02T05:05:03.198Z,995.63
2018-12-02T05:06:03.159Z,995.64
2018-12-02T05:07:03.172Z,995.61
2018-12-02T05:08:03.133Z,995.58
2018-12-02T05:09:03.108Z,995.60
2018-12-02T05:10:03.171Z,995.60
2018-12-02T05:11:03.105Z,995.54
2018-12-02T05:12:03.127Z,995.58
2018-12-02T05:13:03.092Z,995.57
2018-12-02T05:14:03.111Z,995.60
2018-12-02T05:15:03.069Z,995.58
2018-12-02T05:16:03.046Z,995.59
2018-12-02T05:17:03.086Z,995.56
2018-12-02T05:18:03.075Z,995.56
2018-12-02T05:19:02.999Z,995.54
2018-12-02T05:20:03.052Z,995.52
2018-12-02T05:21:02.992Z,995.53
2018-12-02T05:22:03.030Z,995.52
2018-12-02T05:23:02.997Z,995.48
2018-12-02T05:24:02.986Z,995.47
2018-12-02T05:25:02.985Z,995.47
2018-12-02T05:26:02.949Z,995.45
2018-12-02T05:27:02.916Z,995.41
2018-12-02T05:28:02.926Z,995.44
2018-12-02T05:29:02.919Z,995.47
2018-12-02T05:30:02.907Z,995.45
2018-12-02T05:31:02.926Z,995.45
2018-12-02T05:32:10.534Z,995.42
2018-12-02T05:33:02.851Z,995.47
2018-12-02T05:34:02.832Z,995.42
2018-12-02T05:35:02.836Z,995.39
2018-12-02T05:36:02.857Z,995.37
2018-12-02T05:37:02.818Z,995.34
2018-12-02T05:38:02.791Z,995.30
2018-12-02T05:39:02.778Z,995.30
2018-12-02T05:40:02.773Z,995.32
2018-12-02T05:41:02.779Z,995.26
2018-12-02T05:42:02.752Z,995.20
2018-12-02T05:43:02.760Z,995.25
2018-12-02T05:44:02.751Z,995.21
2018-12-02T05:45:02.721Z,995.17
2018-12-02T05:46:02.729Z,995.20
2018-12-02T05:47:02.713Z,995.17
2018-12-02T05:48:02.706Z,995.12
2018-12-02T05:49:02.739Z,995.09
2018-12-02T05:50:02.784Z,995.03
2018-12-02T05:51:02.720Z,995.00
2018-12-02T05:52:02.745Z,994.94
2018-12-02T05:53:02.660Z,994.94
2018-12-02T05:54:02.618Z,994.87
2018-12-02T05:55:02.623Z,994.84
2018-12-02T05:56:02.619Z,994.81
2018-12-02T05:57:02.591Z,994.79
2018-12-02T05:58:02.598Z,994.80
2018-12-02T05:59:02.564Z,994.81
2018-12-02T06:00:02.555Z,994.84
2018-12-02T06:01:02.560Z,994.82
2018-12-02T06:02:02.530Z,994.79
2018-12-02T06:03:02.535Z,994.76
2018-12-02T06:04:02.511Z,994.72
2018-12-02T06:05:02.501Z,994.71
2018-12-02T06:06:02.510Z,994.73
2018-12-02T06:07:02.481Z,994.72
2018-12-02T06:08:02.465Z,994.75
2018-12-02T06:09:02.484Z,994.68
2018-12-02T06:10:02.443Z,994.75
2018-12-02T06:11:02.472Z,994.73
2018-12-02T06:12:02.422Z,994.68
2018-12-02T06:13:02.416Z,994.64
2018-12-02T06:14:12.343Z,994.60
2018-12-02T06:15:02.401Z,994.66
2018-12-02T06:16:02.486Z,994.68
2018-12-02T06:17:02.372Z,994.69
2018-12-02T06:18:02.397Z,994.67
2018-12-02T06:19:02.368Z,994.62
2018-12-02T06:20:04.914Z,994.63
2018-12-02T06:21:02.405Z,994.65
2018-12-02T06:22:02.379Z,994.62
2018-12-02T06:23:02.360Z,994.64
2018-12-02T06:24:02.405Z,994.61
2018-12-02T06:25:02.319Z,994.63
2018-12-02T06:26:02.357Z,994.65
2018-12-02T06:27:02.294Z,994.63
2018-12-02T06:28:02.257Z,994.69
2018-12-02T06:29:02.315Z,994.67
2018-12-02T06:30:02.247Z,994.71
2018-12-02T06:31:02.251Z,994.68
2018-12-02T06:32:02.275Z,994.73
2018-12-02T06:33:02.204Z,994.74
2018-12-02T06:34:02.193Z,994.67
2018-12-02T06:35:02.179Z,994.71
2018-12-02T06:36:02.205Z,994.69
2018-12-02T06:37:02.191Z,994.69
2018-12-02T06:38:02.146Z,994.64
2018-12-02T06:39:02.152Z,994.69
2018-12-02T06:40:02.126Z,994.72
2018-12-02T06:41:02.135Z,994.76
2018-12-02T06:42:02.108Z,994.75
2018-12-02T06:43:02.099Z,994.73
2018-12-02T06:44:02.096Z,994.81
2018-12-02T06:45:02.075Z,994.78
2018-12-02T06:46:02.134Z,994.75
2018-12-02T06:47:02.086Z,994.79
2018-12-02T06:48:02.088Z,994.79
2018-12-02T06:49:02.032Z,994.83
2018-12-02T06:50:02.040Z,994.86
2018-12-02T06:51:02.040Z,994.90
2018-12-02T06:52:02.001Z,994.84
2018-12-02T06:53:02.059Z,994.84
2018-12-02T06:54:01.982Z,994.81
2018-12-02T06:55:01.965Z,994.85
2018-12-02T06:56:02.018Z,994.77
2018-12-02T06:57:01.987Z,994.84
2018-12-02T06:58:01.943Z,994.76
2018-12-02T06:59:01.936Z,994.79
2018-12-02T07:00:01.917Z,994.80
2018-12-02T07:01:01.909Z,994.76
2018-12-02T07:02:01.912Z,994.79
2018-12-02T07:03:01.965Z,994.77
2018-12-02T07:04:01.877Z,994.76
2018-12-02T07:05:01.856Z,994.76
2018-12-02T07:06:01.853Z,994.71
2018-12-02T07:07:12.029Z,994.71
2018-12-02T07:08:01.936Z,994.69
2018-12-02T07:09:09.554Z,994.64
2018-12-02T07:10:02.033Z,994.62
2018-12-02T07:11:01.951Z,994.64
2018-12-02T07:12:01.908Z,994.64
2018-12-02T07:13:01.904Z,994.66
2018-12-02T07:14:01.842Z,994.62
2018-12-02T07:15:01.756Z,994.62
2018-12-02T07:16:01.742Z,994.63
2018-12-02T07:17:01.725Z,994.65
2018-12-02T07:18:01.825Z,994.65
2018-12-02T07:19:01.715Z,994.61
2018-12-02T07:20:01.709Z,994.60
2018-12-02T07:21:01.686Z,994.55
2018-12-02T07:22:01.704Z,994.54
2018-12-02T07:23:01.757Z,994.54
2018-12-02T07:24:01.650Z,994.56
2018-12-02T07:25:01.658Z,994.52
2018-12-02T07:26:01.673Z,994.52
2018-12-02T07:27:01.635Z,994.50
2018-12-02T07:28:01.665Z,994.58
2018-12-02T07:29:01.603Z,994.54
2018-12-02T07:30:01.624Z,994.49
2018-12-02T07:31:01.577Z,994.51
2018-12-02T07:32:01.608Z,994.47
2018-12-02T07:33:11.579Z,994.48
2018-12-02T07:34:01.699Z,994.47
2018-12-02T07:35:01.681Z,994.47
2018-12-02T07:36:01.666Z,994.47
2018-12-02T07:37:01.566Z,994.49
2018-12-02T07:38:01.533Z,994.44
2018-12-02T07:39:01.583Z,994.40
2018-12-02T07:40:01.521Z,994.45
2018-12-02T07:41:01.507Z,994.43
2018-12-02T07:42:01.599Z,994.43
2018-12-02T07:43:01.488Z,994.45
2018-12-02T07:44:01.507Z,994.43
2018-12-02T07:45:01.448Z,994.43
2018-12-02T07:46:01.420Z,994.42
2018-12-02T07:47:01.447Z,994.42
2018-12-02T07:48:01.447Z,994.34
2018-12-02T07:49:01.378Z,994.42
2018-12-02T07:50:01.403Z,994.38
2018-12-02T07:51:01.401Z,994.34
2018-12-02T07:52:01.344Z,994.42
2018-12-02T07:53:01.351Z,994.44
2018-12-02T07:54:01.367Z,994.42
2018-12-02T07:55:01.318Z,994.42
2018-12-02T07:56:01.315Z,994.44
2018-12-02T07:57:01.292Z,994.44
2018-12-02T07:58:01.299Z,994.41
2018-12-02T07:59:10.142Z,994.43
2018-12-02T08:00:08.974Z,994.41
2018-12-02T08:01:01.314Z,994.37
2018-12-02T08:02:01.239Z,994.40
2018-12-02T08:03:01.384Z,994.40
2018-12-02T08:04:01.368Z,994.40
2018-12-02T08:05:01.257Z,994.40
2018-12-02T08:06:01.798Z,994.40
2018-12-02T08:07:01.180Z,994.40
2018-12-02T08:08:10.321Z,994.39
2018-12-02T08:09:01.375Z,994.38
2018-12-02T08:10:01.391Z,994.39
2018-12-02T08:11:01.170Z,994.39
2018-12-02T08:12:01.162Z,994.37
2018-12-02T08:13:01.122Z,994.37
2018-12-02T08:14:01.133Z,994.37
2018-12-02T08:15:01.123Z,994.35
2018-12-02T08:16:01.081Z,994.37
2018-12-02T08:17:01.072Z,994.34
2018-12-02T08:18:01.100Z,994.40
2018-12-02T08:19:01.070Z,994.38
2018-12-02T08:20:01.035Z,994.37
2018-12-02T08:21:01.070Z,994.38
2018-12-02T08:22:01.024Z,994.31
2018-12-02T08:23:01.053Z,994.32
2018-12-02T08:24:01.025Z,994.28
2018-12-02T08:25:00.997Z,994.30
2018-12-02T08:26:09.946Z,994.33
2018-12-02T08:27:01.028Z,994.36
2018-12-02T08:28:01.052Z,994.38
2018-12-02T08:29:00.981Z,994.32
2018-12-02T08:30:01.130Z,994.32
2018-12-02T08:31:00.951Z,994.30
2018-12-02T08:32:00.908Z,994.33
2018-12-02T08:33:00.924Z,994.33
2018-12-02T08:34:00.916Z,994.31
2018-12-02T08:35:00.875Z,994.30
2018-12-02T08:36:01.073Z,994.30
2018-12-02T08:37:00.878Z,994.30
2018-12-02T08:38:00.857Z,994.33
2018-12-02T08:39:01.114Z,994.33
2018-12-02T08:40:01.121Z,994.36
2018-12-02T08:41:00.954Z,994.38
2018-12-02T08:42:00.820Z,994.37
2018-12-02T08:43:00.814Z,994.43
2018-12-02T08:44:00.795Z,994.40
2018-12-02T08:45:00.772Z,994.37
2018-12-02T08:46:00.768Z,994.40
2018-12-02T08:47:00.757Z,994.39
2018-12-02T08:48:00.874Z,994.40
2018-12-02T08:49:00.740Z,994.46
2018-12-02T08:50:00.726Z,994.47
2018-12-02T08:51:00.704Z,994.47
2018-12-02T08:52:00.694Z,994.46
2018-12-02T08:53:00.674Z,994.45
2018-12-02T08:54:00.686Z,994.44
2018-12-02T08:55:00.681Z,994.43
2018-12-02T08:56:00.642Z,994.40
2018-12-02T08:57:00.632Z,994.34
2018-12-02T08:58:00.626Z,994.42
2018-12-02T08:59:00.635Z,994.39
2018-12-02T09:00:00.607Z,994.39
2018-12-02T09:01:00.637Z,994.43
2018-12-02T09:02:00.579Z,994.46
2018-12-02T09:03:00.567Z,994.40
2018-12-02T09:04:00.566Z,994.43
2018-12-02T09:05:00.574Z,994.42
2018-12-02T09:06:00.553Z,994.44
2018-12-02T09:07:00.555Z,994.49
2018-12-02T09:08:00.520Z,994.49
2018-12-02T09:09:00.512Z,994.46
2018-12-02T09:10:00.506Z,994.47
2018-12-02T09:11:09.068Z,994.49
2018-12-02T09:12:00.469Z,994.46
2018-12-02T09:13:00.476Z,994.50
2018-12-02T09:14:00.449Z,994.52
2018-12-02T09:15:00.454Z,994.50
2018-12-02T09:16:00.446Z,994.48
2018-12-02T09:17:00.832Z,994.51
2018-12-02T09:18:00.408Z,994.48
2018-12-02T09:19:00.459Z,994.48
2018-12-02T09:20:00.389Z,994.52
2018-12-02T09:21:00.434Z,994.51
2018-12-02T09:22:00.426Z,994.46
2018-12-02T09:23:00.381Z,994.38
2018-12-02T09:24:00.372Z,994.42
2018-12-02T09:25:00.335Z,994.46
2018-12-02T09:26:00.349Z,994.44
2018-12-02T09:27:00.316Z,994.40
2018-12-02T09:28:00.326Z,994.40
2018-12-02T09:29:00.298Z,994.41
2018-12-02T09:30:00.294Z,994.34
2018-12-02T09:31:00.291Z,994.32
2018-12-02T09:32:00.257Z,994.38
2018-12-02T09:33:00.252Z,994.40
2018-12-02T09:34:00.239Z,994.41
2018-12-02T09:35:00.232Z,994.41
2018-12-02T09:36:00.233Z,994.42
2018-12-02T09:37:00.205Z,994.41
2018-12-02T09:38:00.196Z,994.41
2018-12-02T09:39:00.183Z,994.40
2018-12-02T09:40:00.186Z,994.45
2018-12-02T09:41:00.184Z,994.43
2018-12-02T09:42:00.161Z,994.42
2018-12-02T09:43:00.197Z,994.44
2018-12-02T09:44:00.129Z,994.36
2018-12-02T09:45:00.118Z,994.43
2018-12-02T09:46:00.130Z,994.45
2018-12-02T09:47:00.109Z,994.48
2018-12-02T09:48:00.089Z,994.41
2018-12-02T09:49:00.075Z,994.42
2018-12-02T09:50:00.061Z,994.46
2018-12-02T09:51:00.074Z,994.52
2018-12-02T09:52:00.043Z,994.43
2018-12-02T09:53:00.029Z,994.42
2018-12-02T09:54:00.018Z,994.45
2018-12-02T09:55:00.009Z,994.52
2018-12-02T09:55:59.994Z,994.53
2018-12-02T09:57:00.014Z,994.62
2018-12-02T09:58:10.730Z,994.59
2018-12-02T09:58:59.961Z,994.60
2018-12-02T09:59:59.951Z,994.59
2018-12-02T10:00:59.952Z,994.57
2018-12-02T10:02:00.039Z,994.60
2018-12-02T10:02:59.948Z,994.64
2018-12-02T10:03:59.917Z,994.59
2018-12-02T10:04:59.899Z,994.56
2018-12-02T10:05:59.933Z,994.56
2018-12-02T10:06:59.923Z,994.50
2018-12-02T10:07:59.885Z,994.46
2018-12-02T10:08:59.855Z,994.47
2018-12-02T10:09:59.865Z,994.53
2018-12-02T10:10:59.845Z,994.57
2018-12-02T10:11:59.823Z,994.57
2018-12-02T10:12:59.839Z,994.54
2018-12-02T10:13:59.799Z,994.56
2018-12-02T10:14:59.846Z,994.54
2018-12-02T10:15:59.802Z,994.55
2018-12-02T10:16:59.766Z,994.57
2018-12-02T10:17:59.766Z,994.54
2018-12-02T10:18:59.773Z,994.58
2018-12-02T10:19:59.733Z,994.55
2018-12-02T10:20:59.781Z,994.56
2018-12-02T10:21:59.748Z,994.55
2018-12-02T10:22:59.703Z,994.56
2018-12-02T10:23:59.723Z,994.51
2018-12-02T10:24:59.682Z,994.56
2018-12-02T10:25:59.667Z,994.56
2018-12-02T10:26:59.662Z,994.57
2018-12-02T10:27:59.647Z,994.53
2018-12-02T10:28:59.663Z,994.53
2018-12-02T10:29:59.631Z,994.54
2018-12-02T10:30:59.669Z,994.59
2018-12-02T10:31:59.606Z,994.54
2018-12-02T10:32:59.602Z,994.54
2018-12-02T10:33:59.584Z,994.52
2018-12-02T10:34:59.588Z,994.52
2018-12-02T10:35:59.567Z,994.50
2018-12-02T10:36:59.582Z,994.50
2018-12-02T10:37:59.539Z,994.45
2018-12-02T10:38:59.527Z,994.43
2018-12-02T10:39:59.540Z,994.40
2018-12-02T10:40:59.515Z,994.48
2018-12-02T10:41:59.500Z,994.46
2018-12-02T10:42:59.492Z,994.49
2018-12-02T10:43:59.481Z,994.42
2018-12-02T10:44:59.479Z,994.40
2018-12-02T10:45:59.482Z,994.36
2018-12-02T10:46:59.442Z,994.36
2018-12-02T10:47:59.440Z,994.39
2018-12-02T10:48:59.422Z,994.30
2018-12-02T10:49:59.422Z,994.31
2018-12-02T10:50:59.426Z,994.33
2018-12-02T10:51:59.416Z,994.34
2018-12-02T10:52:59.381Z,994.33
2018-12-02T10:53:59.452Z,994.33
2018-12-02T10:54:59.353Z,994.34
2018-12-02T10:55:59.385Z,994.33
2018-12-02T10:56:59.337Z,994.37
2018-12-02T10:57:59.324Z,994.36
2018-12-02T10:58:59.352Z,994.32
2018-12-02T10:59:59.315Z,994.41
2018-12-02T11:00:59.311Z,994.38
2018-12-02T11:01:59.306Z,994.30
2018-12-02T11:02:59.335Z,994.41
2018-12-02T11:03:59.264Z,994.38
2018-12-02T11:04:59.365Z,994.34
2018-12-02T11:05:59.275Z,994.35
2018-12-02T11:07:08.110Z,994.34
2018-12-02T11:07:59.211Z,994.36
2018-12-02T11:08:59.201Z,994.37
2018-12-02T11:09:59.200Z,994.31
2018-12-02T11:10:59.189Z,994.28
2018-12-02T11:11:59.194Z,994.33
2018-12-02T11:12:59.189Z,994.33
2018-12-02T11:13:59.147Z,994.34
2018-12-02T11:14:59.139Z,994.32
2018-12-02T11:15:59.149Z,994.29
2018-12-02T11:16:59.123Z,994.20
2018-12-02T11:17:59.152Z,994.24
2018-12-02T11:18:59.138Z,994.29
2018-12-02T11:19:59.138Z,994.25
2018-12-02T11:20:59.115Z,994.28
2018-12-02T11:21:59.067Z,994.25
2018-12-02T11:22:59.098Z,994.27
2018-12-02T11:23:59.053Z,994.26
2018-12-02T11:24:59.035Z,994.29
2018-12-02T11:25:59.024Z,994.24
2018-12-02T11:26:59.008Z,994.28
2018-12-02T11:27:59.002Z,994.30
2018-12-02T11:29:08.695Z,994.29
2018-12-02T11:29:59.016Z,994.27
2018-12-02T11:30:59.028Z,994.29
2018-12-02T11:32:06.497Z,994.24
2018-12-02T11:33:06.551Z,994.28
2018-12-02T11:33:58.953Z,994.27
2018-12-02T11:34:58.932Z,994.33
2018-12-02T11:35:58.926Z,994.24
2018-12-02T11:36:58.901Z,994.30
2018-12-02T11:37:58.892Z,994.25
2018-12-02T11:38:58.903Z,994.33
2018-12-02T11:39:58.895Z,994.27
2018-12-02T11:40:59.005Z,994.27
2018-12-02T11:41:58.843Z,994.25
2018-12-02T11:43:06.681Z,994.31
2018-12-02T11:43:58.826Z,994.30
2018-12-02T11:44:58.843Z,994.28
2018-12-02T11:45:58.802Z,994.36
2018-12-02T11:46:58.796Z,994.27
2018-12-02T11:47:58.820Z,994.23
2018-12-02T11:49:08.624Z,994.26
2018-12-02T11:50:08.404Z,994.29
2018-12-02T11:51:05.838Z,994.30
2018-12-02T11:52:07.318Z,994.27
2018-12-02T11:53:06.267Z,994.31
2018-12-02T11:54:06.284Z,994.38
2018-12-02T11:55:06.246Z,994.37
2018-12-02T11:56:07.471Z,994.34
2018-12-02T11:57:06.628Z,994.35
2018-12-02T11:58:06.296Z,994.34
2018-12-02T11:59:06.257Z,994.34
2018-12-02T12:00:06.269Z,994.39
2018-12-02T12:02:08.909Z,994.43
2018-12-02T12:03:16.423Z,994.40
2018-12-02T12:04:08.847Z,994.39
2018-12-02T12:05:08.831Z,994.33
2018-12-02T12:06:08.817Z,994.40
2018-12-02T12:07:08.849Z,994.40
2018-12-02T12:08:08.801Z,994.40
2018-12-02T12:09:08.797Z,994.41
2018-12-02T12:10:08.807Z,994.44
2018-12-02T12:11:08.810Z,994.38
2018-12-02T12:12:08.808Z,994.35
2018-12-02T12:13:08.757Z,994.45
2018-12-02T12:14:08.741Z,994.46
2018-12-02T12:15:08.770Z,994.46
2018-12-02T12:16:08.717Z,994.48
2018-12-02T12:17:08.705Z,994.46
2018-12-02T12:18:08.726Z,994.56
2018-12-02T12:19:08.680Z,994.49
2018-12-02T12:20:08.668Z,994.62
2018-12-02T12:21:08.689Z,994.53
2018-12-02T12:22:08.648Z,994.61
2018-12-02T12:23:08.660Z,994.58
2018-12-02T12:24:08.625Z,994.55
2018-12-02T12:25:08.697Z,994.56
2018-12-02T12:26:08.612Z,994.56
2018-12-02T12:27:08.602Z,994.51
2018-12-02T12:28:08.606Z,994.53
2018-12-02T12:29:08.590Z,994.62
2018-12-02T12:30:08.558Z,994.58
2018-12-02T12:31:08.546Z,994.55
2018-12-02T12:32:08.545Z,994.57
2018-12-02T12:33:08.523Z,994.54
2018-12-02T12:34:08.542Z,994.58
2018-12-02T12:35:08.504Z,994.59
2018-12-02T12:36:08.493Z,994.55